Time;durP1;ratioP1;P1;durP2;ratioP2;P2;SDS_P1;SDS_P2;PMS_P1;PMS_P2;Temp;Humidity;BMP_temperature;BMP_pressure;BME280_temperature;BME280_humidity;BME280_pressure;Samples;Min_cycle;Max_cycle;Signal;HPM_P1;HPM_P2
2023/11/03 00:01:05;;;;;;;9.55;2.80;;;;;;;25.78;41.51;97644.94;4484514;32;33696;-64
2023/11/03 00:03:32;;;;;;;4.12;2.28;;;;;;;25.75;41.56;97629.94;4484663;32;33357;-64
2023/11/03 00:06:00;;;;;;;3.40;2.12;;;;;;;25.74;41.57;97625.59;4484191;32;33901;-64
2023/11/03 00:08:27;;;;;;;7.03;2.40;;;;;;;25.75;41.64;97624.47;4484406;32;34025;-64
2023/11/03 00:10:55;;;;;;;3.67;2.05;;;;;;;25.79;41.66;97622.00;4483610;32;33988;-64
2023/11/03 00:13:25;;;;;;;;;;;;;;;25.77;41.64;97613.28;4484369;32;34420;-64
2023/11/03 00:15:53;;;;;;;9.50;2.22;;;;;;;25.87;41.56;97603.00;4484483;32;33929;-63
2023/11/03 00:18:21;;;;;;;5.87;2.50;;;;;;;25.77;41.90;97605.88;4484121;32;34838;-63
2023/11/03 00:20:49;;;;;;;6.93;2.53;;;;;;;25.73;42.02;97610.28;4484075;32;33938;-63
2023/11/03 00:23:17;;;;;;;5.25;2.17;;;;;;;25.69;41.91;97604.62;4484474;32;33617;-64
2023/11/03 00:25:47;;;;;;;5.40;2.40;;;;;;;25.66;41.93;97602.47;4484267;32;33929;-64
2023/11/03 00:28:15;;;;;;;4.57;1.85;;;;;;;25.64;41.96;97615.56;4484117;32;33703;-64
2023/11/03 00:30:42;;;;;;;6.55;2.05;;;;;;;25.63;42.04;97602.22;4484034;32;34499;-64
2023/11/03 00:33:10;;;;;;;4.80;2.62;;;;;;;25.63;41.98;97599.50;4483983;32;34302;-63
2023/11/03 00:35:38;;;;;;;6.20;2.70;;;;;;;25.61;42.06;97597.06;4469746;32;33904;-64
2023/11/03 00:38:06;;;;;;;5.43;2.50;;;;;;;25.64;42.25;97591.00;4484026;32;33984;-64
2023/11/03 00:40:34;;;;;;;4.95;2.17;;;;;;;25.64;42.20;97601.13;4484193;32;33921;-64
2023/11/03 00:43:03;;;;;;;5.65;2.35;;;;;;;25.60;42.25;97592.72;4484005;32;33754;-64
2023/11/03 00:45:30;;;;;;;5.50;2.20;;;;;;;25.60;42.29;97581.78;4484007;32;33640;-64
2023/11/03 00:47:58;;;;;;;4.70;2.10;;;;;;;25.61;42.30;97585.34;4480804;32;34098;-64
2023/11/03 00:50:26;;;;;;;5.82;2.10;;;;;;;25.60;42.26;97580.97;4483876;32;34498;-63
2023/11/03 00:52:53;;;;;;;5.12;2.22;;;;;;;25.62;42.28;97570.56;4483851;32;33702;-64
2023/11/03 00:55:21;;;;;;;4.60;2.10;;;;;;;25.60;42.28;97568.16;4483529;32;33950;-64
2023/11/03 00:57:49;;;;;;;5.95;2.10;;;;;;;25.59;42.28;97560.22;4483795;32;34756;-64
2023/11/03 01:00:17;;;;;;;3.78;2.12;;;;;;;25.60;42.24;97565.41;4483640;32;34047;-64
2023/11/03 01:02:45;;;;;;;7.22;2.10;;;;;;;25.59;42.29;97555.56;4483582;32;33599;-64
2023/11/03 01:05:14;;;;;;;6.40;2.30;;;;;;;25.59;42.35;97544.66;4483748;32;34674;-63
2023/11/03 01:07:42;;;;;;;6.05;1.92;;;;;;;25.57;42.43;97548.81;4483593;32;33589;-64
2023/11/03 01:10:15;;;;;;;5.60;2.22;;;;;;;25.55;42.53;97538.16;4483518;32;34783;-64
2023/11/03 01:12:43;;;;;;;3.92;1.92;;;;;;;25.55;42.53;97534.62;4483913;32;33072;-64
2023/11/03 01:15:13;;;;;;;6.43;2.47;;;;;;;25.50;42.58;97523.75;4483500;32;34591;-64
2023/11/03 01:17:41;;;;;;;5.37;2.58;;;;;;;25.47;42.62;97522.44;4483241;32;34359;-64
2023/11/03 01:20:15;;;;;;;9.40;2.92;;;;;;;25.46;42.64;97523.56;4483575;32;34181;-63
2023/11/03 01:22:48;;;;;;;4.50;2.20;;;;;;;25.47;42.62;97516.19;4484799;32;34175;-63
2023/11/03 01:25:18;;;;;;;4.93;2.35;;;;;;;25.45;42.59;97511.00;4485422;32;34625;-64
2023/11/03 01:27:46;;;;;;;3.40;1.92;;;;;;;25.43;42.63;97513.22;4485630;32;34886;-64
2023/11/03 01:30:14;;;;;;;5.78;2.60;;;;;;;25.42;42.64;97514.34;4485551;32;33947;-63
2023/11/03 01:32:42;;;;;;;3.95;2.00;;;;;;;25.41;42.69;97515.41;4485467;32;34189;-63
2023/11/03 01:35:10;;;;;;;3.42;1.90;;;;;;;25.41;42.68;97512.69;4485383;32;34774;-63
2023/11/03 01:37:38;;;;;;;4.32;1.90;;;;;;;25.40;42.68;97516.53;4485303;32;34715;-64
2023/11/03 01:40:08;;;;;;;4.62;2.00;;;;;;;25.38;42.65;97511.38;4485409;32;34487;-64
2023/11/03 01:42:36;;;;;;;4.50;2.47;;;;;;;25.38;42.69;97516.03;4485375;32;32654;-63
2023/11/03 01:45:05;;;;;;;5.00;1.95;;;;;;;25.36;42.69;97508.13;4485234;32;33961;-63
2023/11/03 01:47:32;;;;;;;5.87;2.00;;;;;;;25.37;42.75;97503.50;4485038;32;34974;-64
2023/11/03 01:50:00;;;;;;;5.60;2.20;;;;;;;25.36;42.72;97504.56;4485218;32;34879;-64
2023/11/03 01:52:28;;;;;;;4.97;1.92;;;;;;;25.35;42.75;97508.41;4485199;32;33369;-64
2023/11/03 01:54:55;;;;;;;5.30;1.80;;;;;;;25.35;42.72;97497.50;4471101;32;34015;-64
2023/11/03 01:57:23;;;;;;;4.28;2.05;;;;;;;25.34;42.88;97490.41;4481251;32;33928;-64
2023/11/03 01:59:51;;;;;;;3.35;1.60;;;;;;;25.34;42.88;97482.22;4469523;32;33487;-64
2023/11/03 02:02:19;;;;;;;5.65;2.17;;;;;;;25.34;42.86;97483.03;4455620;32;33491;-64
2023/11/03 02:04:47;;;;;;;4.18;2.20;;;;;;;25.33;42.91;97469.69;4469567;32;33676;-64
2023/11/03 02:07:16;;;;;;;3.60;1.62;;;;;;;25.32;42.90;97457.13;4469243;32;34132;-64
2023/11/03 02:09:43;;;;;;;3.97;1.80;;;;;;;25.33;42.85;97445.13;4455550;32;33741;-64
2023/11/03 02:12:11;;;;;;;3.35;1.80;;;;;;;25.32;42.87;97446.22;4469368;32;33411;-64
2023/11/03 02:14:39;;;;;;;4.35;2.10;;;;;;;25.31;42.84;97445.41;4469515;32;33977;-64
2023/11/03 02:17:06;;;;;;;4.45;1.87;;;;;;;25.31;42.77;97441.88;4469442;32;34678;-64
2023/11/03 02:19:34;;;;;;;4.03;2.00;;;;;;;25.29;42.90;97442.19;4469238;32;34319;-64
2023/11/03 02:22:02;;;;;;;4.07;1.92;;;;;;;25.30;42.92;97443.78;4442661;32;33893;-64
2023/11/03 02:24:30;;;;;;;3.78;1.70;;;;;;;25.30;42.95;97442.97;4469401;32;34153;-64
2023/11/03 02:26:58;;;;;;;3.25;1.80;;;;;;;25.30;42.90;97442.97;4469304;32;34145;-63
2023/11/03 02:29:25;;;;;;;3.92;1.80;;;;;;;25.29;42.85;97431.25;4469456;32;34039;-64
2023/11/03 02:31:53;;;;;;;6.80;1.95;;;;;;;25.28;42.96;97432.37;4469094;32;33649;-63
2023/11/03 02:34:20;;;;;;;4.95;1.98;;;;;;;25.27;42.95;97428.00;4468949;32;34029;-64
2023/11/03 02:36:48;;;;;;;3.67;2.08;;;;;;;25.28;42.96;97421.44;4469343;32;34125;-63
2023/11/03 02:39:16;;;;;;;4.72;2.72;;;;;;;25.27;42.96;97405.34;4469248;32;33501;-64
2023/11/03 02:41:43;;;;;;;3.35;1.60;;;;;;;25.26;42.85;97398.28;4445727;32;33168;-63
2023/11/03 02:44:11;;;;;;;3.90;1.80;;;;;;;25.26;43.00;97398.28;4484932;32;33797;-64
2023/11/03 02:46:42;;;;;;;4.00;1.98;;;;;;;25.26;42.96;97393.63;4484998;32;34065;-64
2023/11/03 02:49:10;;;;;;;3.53;1.95;;;;;;;25.24;42.90;97384.13;4481696;31;34606;-64
2023/11/03 02:51:38;;;;;;;3.22;1.60;;;;;;;25.25;42.95;97363.91;4485198;32;34176;-64
2023/11/03 02:54:07;;;;;;;4.10;2.05;;;;;;;25.24;42.93;97354.09;4485095;32;34619;-64
2023/11/03 02:56:35;;;;;;;2.55;1.60;;;;;;;25.23;42.87;97349.72;4484673;32;33699;-64
2023/11/03 02:59:02;;;;;;;4.53;2.08;;;;;;;25.22;42.88;97340.75;4484943;32;34015;-63
2023/11/03 03:01:36;;;;;;;4.68;1.95;;;;;;;25.22;42.93;97337.19;4483597;32;33437;-64
2023/11/03 03:04:04;;;;;;;4.35;2.05;;;;;;;25.21;42.93;97335.59;4484664;32;33589;-64
2023/11/03 03:06:32;;;;;;;3.50;1.80;;;;;;;25.21;43.09;97320.03;4484756;32;33815;-64
2023/11/03 03:09:00;;;;;;;6.32;2.42;;;;;;;25.20;43.01;97307.50;4483640;32;33693;-63
2023/11/03 03:11:28;;;;;;;4.75;2.70;;;;;;;25.19;43.05;97303.97;4483616;32;33732;-64
2023/11/03 03:13:55;;;;;;;3.60;1.87;;;;;;;25.19;43.08;97311.34;4484743;32;34564;-63
2023/11/03 03:16:24;;;;;;;5.20;2.17;;;;;;;25.18;43.09;97315.16;4484567;32;34771;-64
2023/11/03 03:18:51;;;;;;;4.22;1.48;;;;;;;25.18;43.03;97304.22;4484723;32;33358;-64
2023/11/03 03:21:19;;;;;;;3.60;1.90;;;;;;;25.19;42.93;97311.34;4484688;32;33476;-64
2023/11/03 03:23:47;;;;;;;4.07;2.10;;;;;;;25.17;43.03;97311.63;4484593;32;34081;-64
2023/11/03 03:26:14;;;;;;;4.57;1.85;;;;;;;25.17;43.10;97303.44;4484739;32;33875;-64
2023/11/03 03:28:42;;;;;;;3.58;2.05;;;;;;;25.19;42.89;97319.53;4484559;32;34800;-63
2023/11/03 03:31:10;;;;;;;3.35;1.83;;;;;;;25.17;42.94;97308.06;4484413;32;34306;-64
2023/11/03 03:33:38;;;;;;;2.97;1.90;;;;;;;25.17;42.96;97310.81;4484672;32;33734;-64
2023/11/03 03:36:07;;;;;;;4.15;2.00;;;;;;;25.16;42.90;97301.81;4484587;32;34146;-63
2023/11/03 03:38:35;;;;;;;3.67;1.65;;;;;;;25.15;42.91;97297.47;4484382;32;33971;-63
2023/11/03 03:41:03;;;;;;;3.90;1.87;;;;;;;25.16;42.87;97301.81;4484880;32;33332;-63
2023/11/03 03:43:30;;;;;;;3.92;1.80;;;;;;;25.17;42.81;97294.44;4484255;32;33988;-64
2023/11/03 03:45:59;;;;;;;3.67;1.85;;;;;;;25.15;42.92;97285.75;4483773;32;34831;-64
2023/11/03 03:48:27;;;;;;;3.37;1.85;;;;;;;25.15;42.87;97283.03;4473838;32;34016;-64
2023/11/03 03:50:55;;;;;;;4.32;2.10;;;;;;;25.16;42.91;97295.53;4468780;32;33395;-64
2023/11/03 03:53:22;;;;;;;5.10;1.95;;;;;;;25.15;42.90;97288.47;4468619;32;34573;-64
2023/11/03 03:55:50;;;;;;;16.20;2.05;;;;;;;25.15;43.06;97294.75;4468554;32;34085;-65
2023/11/03 03:58:17;;;;;;;4.25;1.95;;;;;;;25.15;42.96;97283.81;4468736;32;33468;-64
2023/11/03 04:00:45;;;;;;;3.53;1.70;;;;;;;25.14;42.93;97282.22;4468713;32;34164;-64
2023/11/03 04:03:13;;;;;;;3.20;1.75;;;;;;;25.13;42.97;97271.56;4468697;32;33988;-63
2023/11/03 04:05:40;;;;;;;3.40;1.77;;;;;;;25.14;42.95;97271.28;4469019;32;34121;-63
2023/11/03 04:08:08;;;;;;;5.47;1.58;;;;;;;25.13;42.96;97274.31;4468481;32;33618;-64
2023/11/03 04:10:36;;;;;;;5.20;1.90;;;;;;;25.13;43.09;97279.75;4468639;32;33001;-64
2023/11/03 04:13:03;;;;;;;3.60;1.87;;;;;;;25.12;43.04;97275.41;4468655;32;33760;-64
2023/11/03 04:15:30;;;;;;;3.55;1.85;;;;;;;25.11;42.97;97260.97;4468471;32;34689;-64
2023/11/03 04:17:58;;;;;;;3.42;1.98;;;;;;;25.10;42.99;97253.09;4468525;32;33805;-63
2023/11/03 04:20:26;;;;;;;3.58;1.73;;;;;;;25.11;43.06;97235.59;4468679;32;34387;-63
2023/11/03 04:22:53;;;;;;;2.92;1.73;;;;;;;25.09;43.10;97233.19;4468670;32;33810;-64
2023/11/03 04:25:21;;;;;;;3.80;1.58;;;;;;;25.09;43.00;97219.53;4468734;32;33981;-64
2023/11/03 04:27:49;;;;;;;3.67;1.80;;;;;;;25.09;43.05;97219.53;4468557;32;33817;-64
2023/11/03 04:30:16;;;;;;;2.55;1.55;;;;;;;25.09;43.05;97218.75;4468366;32;33617;-63
2023/11/03 04:32:44;;;;;;;4.45;2.25;;;;;;;25.08;42.99;97207.00;4468403;32;33730;-64
2023/11/03 04:35:12;;;;;;;3.83;2.08;;;;;;;25.09;43.04;97208.62;4468377;32;33627;-64
2023/11/03 04:37:39;;;;;;;3.75;1.70;;;;;;;25.08;43.10;97206.19;4468274;32;33467;-64
2023/11/03 04:40:07;;;;;;;3.97;1.75;;;;;;;25.08;43.05;97193.34;4468419;32;33545;-64
2023/11/03 04:42:35;;;;;;;4.20;2.05;;;;;;;25.07;43.03;97180.81;4468270;32;33873;-63
2023/11/03 04:45:03;;;;;;;4.00;1.77;;;;;;;25.07;43.08;97175.38;4468434;32;34141;-64
2023/11/03 04:47:30;;;;;;;3.90;1.70;;;;;;;25.07;42.99;97167.19;4471248;32;33843;-64
2023/11/03 04:49:58;;;;;;;3.08;1.85;;;;;;;25.07;42.96;97156.25;4484049;32;33475;-63
2023/11/03 04:52:25;;;;;;;2.45;1.60;;;;;;;25.07;43.07;97155.44;4483628;32;34676;-63
2023/11/03 04:54:53;;;;;;;3.65;1.73;;;;;;;25.07;43.10;97160.88;4483807;32;34054;-64
2023/11/03 04:57:22;;;;;;;2.78;1.60;;;;;;;25.05;43.12;97144.81;4489039;32;33960;-64
2023/11/03 04:59:49;;;;;;;2.87;1.45;;;;;;;25.06;43.07;97132.00;4489033;32;34448;-64
2023/11/03 05:02:17;;;;;;;4.20;2.17;;;;;;;25.06;42.96;97134.72;4489022;32;33578;-64
2023/11/03 05:04:45;;;;;;;3.00;1.65;;;;;;;25.04;42.91;97129.56;4488957;32;34090;-64
2023/11/03 05:07:12;;;;;;;3.12;1.77;;;;;;;25.04;43.10;97131.47;4488727;32;33846;-64
2023/11/03 05:09:41;;;;;;;3.25;1.98;;;;;;;25.03;43.07;97141.56;4488981;32;33518;-64
2023/11/03 05:12:10;;;;;;;3.78;1.77;;;;;;;25.03;43.12;97133.38;4488791;32;34071;-64
2023/11/03 05:14:37;;;;;;;2.28;1.60;;;;;;;25.03;43.16;97143.50;4488873;32;33880;-63
2023/11/03 05:17:07;;;;;;;2.60;1.40;;;;;;;25.03;43.03;97136.13;4488612;32;33949;-63
2023/11/03 05:19:35;;;;;;;3.80;1.67;;;;;;;25.02;43.12;97139.97;4488598;32;33406;-63
2023/11/03 05:22:03;;;;;;;5.93;1.95;;;;;;;25.02;43.21;97134.50;4488768;32;33830;-64
2023/11/03 05:24:31;;;;;;;5.05;2.03;;;;;;;25.02;43.06;97133.69;4488430;32;34021;-64
2023/11/03 05:26:59;;;;;;;3.58;1.58;;;;;;;25.01;43.09;97132.91;4487156;32;32895;-64
2023/11/03 05:29:27;;;;;;;2.15;1.30;;;;;;;25.00;43.14;97134.00;4488650;32;33313;-64
2023/11/03 05:31:55;;;;;;;2.83;1.70;;;;;;;25.01;43.08;97134.81;4488398;32;33946;-64
2023/11/03 05:34:22;;;;;;;2.45;1.62;;;;;;;25.00;43.09;97119.56;4488348;32;34185;-64
2023/11/03 05:36:52;;;;;;;3.97;1.83;;;;;;;25.00;43.07;97122.28;4488407;32;34555;-63
2023/11/03 05:39:23;;;;;;;3.92;1.75;;;;;;;25.00;43.10;97111.38;4488503;32;33451;-64
2023/11/03 05:41:50;;;;;;;5.03;1.80;;;;;;;25.00;42.99;97105.94;4488238;32;33589;-64
2023/11/03 05:44:18;;;;;;;5.07;2.00;;;;;;;25.00;43.03;97117.66;4488325;32;34699;-64
2023/11/03 05:46:46;;;;;;;3.15;1.50;;;;;;;24.98;43.08;97114.38;4488307;32;34213;-64
2023/11/03 05:49:13;;;;;;;3.37;1.73;;;;;;;24.98;42.93;97119.84;4487985;31;33715;-63
2023/11/03 05:51:42;;;;;;;4.60;1.42;;;;;;;24.98;42.92;97113.59;4488374;32;34673;-64
2023/11/03 05:54:10;;;;;;;2.50;1.47;;;;;;;24.98;42.95;97114.38;4488173;32;33831;-64
2023/11/03 05:56:37;;;;;;;3.33;1.58;;;;;;;24.98;42.87;97119.84;4488161;32;34144;-64
2023/11/03 05:59:05;;;;;;;2.72;1.45;;;;;;;24.97;43.08;97118.25;4488033;32;33602;-64
2023/11/03 06:01:33;;;;;;;8.45;1.80;;;;;;;24.98;43.00;97122.56;4488089;32;34628;-64
2023/11/03 06:04:01;;;;;;;3.03;1.50;;;;;;;24.98;43.16;97116.31;4487962;32;34122;-64
2023/11/03 06:06:29;;;;;;;3.97;1.62;;;;;;;24.97;43.01;97104.59;4487876;32;34045;-64
2023/11/03 06:08:57;;;;;;;3.12;1.33;;;;;;;24.97;43.07;97096.41;4484709;32;33520;-64
2023/11/03 06:11:25;;;;;;;3.00;1.48;;;;;;;24.96;43.07;97105.72;4485084;32;34678;-64
2023/11/03 06:13:52;;;;;;;5.68;2.08;;;;;;;24.97;43.09;97103.78;4485103;32;34102;-64
2023/11/03 06:16:21;;;;;;;3.00;1.62;;;;;;;24.96;43.08;97105.72;4485014;32;34851;-64
2023/11/03 06:18:51;;;;;;;2.47;1.42;;;;;;;24.95;43.00;97115.00;4483903;32;33304;-64
2023/11/03 06:21:20;;;;;;;4.30;1.50;;;;;;;24.95;43.05;97109.56;4485290;32;33812;-64
2023/11/03 06:23:48;;;;;;;4.03;1.52;;;;;;;24.94;43.20;97108.72;4484833;32;34029;-64
2023/11/03 06:26:16;;;;;;;3.50;1.80;;;;;;;24.95;43.19;97109.56;4485092;32;33601;-64
2023/11/03 06:28:43;;;;;;;5.45;1.80;;;;;;;24.94;43.13;97113.37;4485089;32;33504;-64
2023/11/03 06:31:11;;;;;;;3.60;1.67;;;;;;;24.93;43.18;97114.50;4484886;32;34035;-63
2023/11/03 06:33:39;;;;;;;2.47;1.52;;;;;;;24.93;43.25;97103.56;4485103;32;33909;-64
2023/11/03 06:36:07;;;;;;;3.25;1.50;;;;;;;24.93;43.18;97111.75;4484959;32;33815;-64
2023/11/03 06:38:34;;;;;;;4.20;1.80;;;;;;;24.92;43.22;97110.16;4484796;32;33301;-64
2023/11/03 06:41:03;;;;;;;4.43;1.60;;;;;;;24.91;43.21;97114.78;4485015;32;34006;-64
2023/11/03 06:43:31;;;;;;;4.20;1.50;;;;;;;24.91;43.18;97120.25;4483769;32;34885;-64
2023/11/03 06:45:58;;;;;;;3.05;1.55;;;;;;;24.92;43.15;97123.78;4484716;32;34026;-64
2023/11/03 06:48:26;;;;;;;2.55;1.33;;;;;;;24.91;43.28;97114.00;4461395;32;34102;-64
2023/11/03 06:50:54;;;;;;;3.00;1.50;;;;;;;24.91;43.25;97114.00;4469291;32;34743;-64
2023/11/03 06:53:23;;;;;;;2.70;1.50;;;;;;;24.90;43.17;97113.19;4469065;32;34719;-64
2023/11/03 06:55:51;;;;;;;2.97;1.35;;;;;;;24.90;43.14;97113.19;4469142;32;34005;-62
2023/11/03 06:58:18;;;;;;;6.35;1.58;;;;;;;24.91;43.36;97108.53;4469165;32;34092;-63
2023/11/03 07:00:46;;;;;;;3.62;1.58;;;;;;;24.91;43.38;97109.34;4469249;32;33814;-63
2023/11/03 07:03:15;;;;;;;4.07;1.60;;;;;;;24.91;43.49;97114.78;4469043;32;34750;-62
2023/11/03 07:05:45;;;;;;;5.47;1.98;;;;;;;24.91;43.31;97116.72;4469050;32;33443;-63
2023/11/03 07:08:13;;;;;;;4.90;1.65;;;;;;;24.91;43.34;97106.63;4467762;32;33149;-63
2023/11/03 07:10:40;;;;;;;5.32;1.80;;;;;;;24.90;43.08;97107.72;4469015;32;33525;-63
2023/11/03 07:13:08;;;;;;;5.28;2.25;;;;;;;24.91;43.24;97103.09;4469037;32;34710;-63
2023/11/03 07:15:37;;;;;;;6.37;2.60;;;;;;;24.90;42.71;97096.81;4468947;32;33271;-65
2023/11/03 07:18:05;;;;;;;6.87;2.40;;;;;;;24.88;42.51;97109.94;4468717;32;33528;-65
2023/11/03 07:20:33;;;;;;;6.62;2.30;;;;;;;24.87;42.58;97102.06;4467762;32;33530;-65
2023/11/03 07:23:04;;;;;;;6.25;2.33;;;;;;;24.86;42.71;97086.81;4468890;32;33504;-66
2023/11/03 07:25:33;;;;;;;5.25;1.87;;;;;;;24.86;42.65;97081.34;4469175;32;33587;-66
2023/11/03 07:28:00;;;;;;;5.57;2.30;;;;;;;24.86;42.59;97067.72;4468775;32;33396;-66
2023/11/03 07:30:28;;;;;;;5.22;2.03;;;;;;;24.85;42.54;97066.87;4468933;32;33724;-66
2023/11/03 07:32:57;;;;;;;4.68;2.30;;;;;;;24.86;42.49;97065.00;4467868;32;34416;-66
2023/11/03 07:35:25;;;;;;;4.87;1.87;;;;;;;24.84;42.49;97046.19;4468873;32;34142;-65
2023/11/03 07:37:53;;;;;;;5.62;2.42;;;;;;;24.86;42.46;97043.19;4469157;32;33808;-66
2023/11/03 07:40:20;;;;;;;4.57;2.12;;;;;;;24.84;42.46;97029.81;4472134;32;33889;-67
2023/11/03 07:42:48;;;;;;;7.12;2.30;;;;;;;24.85;42.47;97033.34;4484683;32;34872;-67
2023/11/03 07:45:16;;;;;;;4.47;2.25;;;;;;;24.84;42.54;97046.19;4484366;32;33939;-67
2023/11/03 07:47:44;;;;;;;5.20;2.20;;;;;;;24.85;42.65;97049.72;4475940;32;33096;-66
2023/11/03 07:50:13;;;;;;;4.70;2.25;;;;;;;24.85;42.77;97045.06;4468549;32;34457;-67
2023/11/03 07:52:40;;;;;;;9.00;2.60;;;;;;;24.86;42.87;97037.72;4468865;32;34483;-67
2023/11/03 07:55:08;;;;;;;8.18;2.42;;;;;;;24.86;42.93;97022.16;4468764;32;34499;-66
2023/11/03 07:57:38;;;;;;;6.50;2.30;;;;;;;24.87;42.88;97001.16;4482519;32;34091;-67
2023/11/03 08:00:09;;;;;;;8.05;2.55;;;;;;;24.87;43.00;97001.97;4484343;32;34538;-67
2023/11/03 08:02:38;;;;;;;7.85;2.50;;;;;;;24.87;43.10;96995.69;4484460;32;33641;-67
2023/11/03 08:05:07;;;;;;;6.75;2.10;;;;;;;24.88;43.08;96983.66;4484672;32;33767;-66
2023/11/03 08:07:35;;;;;;;5.60;2.70;;;;;;;24.88;43.10;96987.19;4484443;32;34037;-66
2023/11/03 08:10:03;;;;;;;8.38;2.35;;;;;;;24.89;43.14;96985.28;4484264;32;33659;-67
2023/11/03 08:12:33;;;;;;;9.68;2.92;;;;;;;24.88;43.20;96976.28;4483016;32;34010;-65
2023/11/03 08:15:03;;;;;;;;;;;;;;;24.89;43.17;96979.81;4484577;32;33913;-66
2023/11/03 08:17:43;;;;;;;8.38;2.40;;;;;;;25.00;42.95;96972.25;4484176;32;33142;-67
2023/11/03 08:20:15;;;;;;;11.85;2.72;;;;;;;24.92;43.06;96979.22;4484323;32;34643;-66
2023/11/03 08:22:44;;;;;;;6.72;2.35;;;;;;;24.89;43.21;96971.62;4482850;32;34010;-67
2023/11/03 08:25:12;;;;;;;8.60;2.40;;;;;;;24.89;43.26;96966.19;4478752;32;34117;-66
2023/11/03 08:27:40;;;;;;;7.85;2.87;;;;;;;24.88;43.25;96961.84;4486187;31;34282;-65
2023/11/03 08:30:11;;;;;;;8.10;2.62;;;;;;;24.88;43.43;96961.84;4482884;32;33703;-64
2023/11/03 08:32:38;;;;;;;4.65;2.40;;;;;;;24.86;43.66;96975.81;4483929;32;33861;-67
2023/11/03 08:35:07;;;;;;;8.48;2.85;;;;;;;24.88;43.76;96972.75;4483824;32;33712;-66
2023/11/03 08:37:35;;;;;;;9.38;3.28;;;;;;;24.89;43.85;96980.63;4483614;32;34269;-65
2023/11/03 08:40:03;;;;;;;5.15;2.50;;;;;;;24.91;43.87;96986.59;4483656;32;33659;-65
2023/11/03 08:42:34;;;;;;;6.18;2.87;;;;;;;24.91;43.95;96994.78;4483455;32;33904;-65
2023/11/03 08:45:02;;;;;;;7.97;2.58;;;;;;;24.90;43.98;96985.00;4482272;32;33863;-65
2023/11/03 08:47:31;;;;;;;7.97;2.85;;;;;;;24.89;44.03;96977.91;4483263;32;33372;-66
2023/11/03 08:49:59;;;;;;;9.20;2.80;;;;;;;24.91;43.98;96972.16;4483430;32;33843;-65
2023/11/03 08:52:26;;;;;;;7.85;2.85;;;;;;;24.90;44.02;96965.06;4483366;32;33780;-65
2023/11/03 08:54:54;;;;;;;6.72;3.03;;;;;;;24.90;44.05;96940.53;4483363;32;33466;-67
2023/11/03 08:57:21;;;;;;;10.45;2.90;;;;;;;24.89;44.03;96930.72;4483555;32;33739;-65
2023/11/03 08:59:49;;;;;;;5.70;2.37;;;;;;;24.90;44.04;96929.63;4483400;32;33631;-65
2023/11/03 09:02:17;;;;;;;7.07;2.62;;;;;;;24.91;44.02;96928.53;4483314;32;33609;-64
2023/11/03 09:04:45;;;;;;;10.75;2.90;;;;;;;24.90;44.00;96905.91;4483197;32;33784;-65
2023/11/03 09:07:13;;;;;;;8.93;2.83;;;;;;;24.90;43.97;96902.34;4483215;32;33188;-65
2023/11/03 09:09:41;;;;;;;8.18;2.40;;;;;;;24.89;44.00;96900.72;4483420;32;33931;-67
2023/11/03 09:12:10;;;;;;;5.53;2.87;;;;;;;24.88;44.08;96913.56;4481636;32;34025;-66
2023/11/03 09:14:38;;;;;;;9.15;2.92;;;;;;;24.89;44.14;96955.28;4482929;32;34674;-67
2023/11/03 09:17:10;;;;;;;12.45;2.55;;;;;;;24.90;44.16;97003.25;4483049;32;34253;-67
2023/11/03 09:19:38;;;;;;;10.55;3.45;;;;;;;24.90;44.09;97016.88;4482889;32;33975;-67
2023/11/03 09:22:07;;;;;;;8.23;2.80;;;;;;;24.90;44.13;97030.53;4481578;32;33594;-67
2023/11/03 09:24:34;;;;;;;7.07;2.78;;;;;;;24.90;44.08;97063.25;4483315;32;33806;-64
2023/11/03 09:27:03;;;;;;;7.85;2.50;;;;;;;24.89;44.04;97064.38;4482933;32;33187;-64
2023/11/03 09:29:37;;;;;;;8.55;2.87;;;;;;;24.88;44.04;97100.94;4483189;32;34109;-64
2023/11/03 09:32:04;;;;;;;7.20;2.47;;;;;;;24.89;43.97;97095.19;4482901;32;33762;-65
2023/11/03 09:34:32;;;;;;;7.18;2.70;;;;;;;24.89;44.05;97118.91;4482842;32;33381;-64
2023/11/03 09:37:02;;;;;;;8.80;2.97;;;;;;;24.89;43.94;97138.81;4482755;32;34068;-64
2023/11/03 09:39:33;;;;;;;10.18;2.70;;;;;;;24.89;44.03;97140.75;4482665;32;33370;-64
2023/11/03 09:42:04;;;;;;;7.00;2.97;;;;;;;24.89;44.04;97148.94;4482671;32;34832;-66
2023/11/03 09:44:32;;;;;;;9.60;3.60;;;;;;;24.89;44.04;97154.38;4485068;32;33592;-64
2023/11/03 09:47:00;;;;;;;7.90;2.83;;;;;;;24.89;44.00;97157.09;4484829;32;33385;-64
2023/11/03 09:49:31;;;;;;;7.25;2.62;;;;;;;24.87;43.96;97154.69;4484929;32;33948;-66
2023/11/03 09:52:04;;;;;;;6.65;2.70;;;;;;;24.88;43.99;97152.78;4483410;32;34406;-65
2023/11/03 09:54:33;;;;;;;7.10;2.50;;;;;;;24.88;44.05;97163.69;4484615;32;33478;-64
2023/11/03 09:57:08;;;;;;;7.62;2.40;;;;;;;24.88;43.98;97156.31;4484903;32;33324;-65
2023/11/03 09:59:37;;;;;;;10.55;2.72;;;;;;;24.88;43.99;97141.84;4485075;32;33536;-65
2023/11/03 10:02:11;;;;;;;10.63;2.67;;;;;;;24.87;43.88;97132.88;4470907;32;34638;-65
2023/11/03 10:04:39;;;;;;;6.97;2.47;;;;;;;24.88;43.87;97125.50;4483551;32;34708;-65
2023/11/03 10:07:11;;;;;;;5.10;2.33;;;;;;;24.87;43.94;97118.44;4470678;32;33620;-65
2023/11/03 10:09:42;;;;;;;6.18;2.80;;;;;;;24.87;44.00;97107.50;4484812;32;33799;-66
2023/11/03 10:12:11;;;;;;;8.35;2.65;;;;;;;24.86;44.00;97086.81;4484500;32;33606;-65
2023/11/03 10:14:41;;;;;;;6.05;2.65;;;;;;;24.86;43.95;97082.16;4483783;32;34610;-65
2023/11/03 10:17:09;;;;;;;6.57;2.70;;;;;;;24.86;43.95;97052.16;4484391;31;33407;-66
2023/11/03 10:19:37;;;;;;;6.30;2.55;;;;;;;24.85;43.88;97014.25;4484661;32;34553;-65
2023/11/03 10:22:08;;;;;;;7.15;2.85;;;;;;;24.85;43.97;97017.78;4485075;32;33852;-63
2023/11/03 10:24:38;;;;;;;5.72;2.20;;;;;;;24.85;43.86;97017.00;4484310;32;34538;-64
2023/11/03 10:27:06;;;;;;;4.72;2.22;;;;;;;24.85;43.93;97001.44;4483426;32;33521;-63
2023/11/03 10:29:34;;;;;;;4.80;2.22;;;;;;;24.84;43.94;96988.91;4482971;32;33124;-66
2023/11/03 10:32:02;;;;;;;8.00;2.55;;;;;;;24.88;43.96;97000.03;4470263;32;33993;-65
2023/11/03 10:34:29;;;;;;;6.22;2.45;;;;;;;24.87;43.82;96996.50;4482860;32;34529;-65
2023/11/03 10:36:57;;;;;;;5.87;2.53;;;;;;;24.85;43.62;96974.16;4464192;32;34005;-66
2023/11/03 10:39:25;;;;;;;6.22;2.60;;;;;;;24.85;43.53;96973.34;4467390;32;33532;-67
2023/11/03 10:41:53;;;;;;;5.68;2.37;;;;;;;24.84;43.62;96949.94;4468628;32;34728;-66
2023/11/03 10:44:21;;;;;;;9.25;2.67;;;;;;;24.83;43.61;96959.22;4483156;32;34542;-64
2023/11/03 10:46:56;;;;;;;5.20;2.58;;;;;;;24.81;43.54;96950.56;4483033;32;33440;-65
2023/11/03 10:49:29;;;;;;;6.15;2.55;;;;;;;24.81;43.55;96956.00;4482784;32;34219;-65
2023/11/03 10:52:13;;;;;;;6.93;2.47;;;;;;;24.79;43.58;96953.56;4482912;32;33903;-64
2023/11/03 10:54:49;;;;;;;6.32;2.62;;;;;;;24.81;43.55;96926.00;4483632;32;34229;-65
2023/11/03 10:57:17;;;;;;;5.40;2.95;;;;;;;24.78;43.50;96935.59;4484329;32;34002;-64
2023/11/03 11:00:17;;;;;;;8.75;3.35;;;;;;;24.76;43.50;96943.28;4482887;32;34888;-65
2023/11/03 11:02:53;;;;;;;5.62;2.78;;;;;;;24.75;43.46;96908.13;4483777;32;35037;-65
2023/11/03 11:05:34;;;;;;;6.97;2.80;;;;;;;24.74;43.52;96881.97;4482805;32;33601;-64
2023/11/03 11:08:03;;;;;;;5.55;2.80;;;;;;;24.75;43.46;96898.03;4482582;32;33795;-64
2023/11/03 11:10:37;;;;;;;6.47;3.37;;;;;;;24.73;43.52;96880.38;4484216;32;34124;-65
2023/11/03 11:13:15;;;;;;;8.20;2.78;;;;;;;24.71;43.53;96837.03;4470151;32;33522;-64
2023/11/03 11:16:04;;;;;;;5.68;3.25;;;;;;;24.71;43.56;96749.78;4468571;32;33848;-64
2023/11/03 11:18:33;;;;;;;8.07;2.72;;;;;;;24.73;43.44;96798.56;4468350;32;33450;-66
2023/11/03 11:21:05;;;;;;;6.75;2.90;;;;;;;24.71;43.45;96830.78;4481666;32;33941;-65
2023/11/03 11:23:38;;;;;;;4.40;2.70;;;;;;;24.73;43.54;96842.19;4484376;32;35244;-64
2023/11/03 11:26:18;;;;;;;7.93;3.12;;;;;;;24.73;43.56;96858.56;4482879;32;35095;-66
2023/11/03 11:29:02;;;;;;;6.15;2.50;;;;;;;24.74;43.46;96841.06;4482617;32;33363;-65
2023/11/03 11:31:30;;;;;;;5.75;2.60;;;;;;;24.72;43.34;96807.87;4483100;32;34072;-65
2023/11/03 11:34:03;;;;;;;8.05;2.80;;;;;;;24.71;43.50;96833.50;4484261;32;32909;-65
2023/11/03 11:36:35;;;;;;;7.03;2.95;;;;;;;24.71;43.53;96882.56;4483950;32;33876;-66
2023/11/03 11:39:14;;;;;;;4.72;2.47;;;;;;;24.71;43.53;96877.13;4482966;32;32594;-66
2023/11/03 11:41:59;;;;;;;9.27;2.45;;;;;;;24.72;43.55;96878.75;4484132;32;33965;-65